Time;durP1;ratioP1;P1;durP2;ratioP2;P2;SDS_P1;SDS_P2;PMS_P1;PMS_P2;Temp;Humidity;BMP_temperature;BMP_pressure;BME280_temperature;BME280_humidity;BME280_pressure;Samples;Min_cycle;Max_cycle;Signal;HPM_P1;HPM_P2
2023/12/28 00:01:17;;;;;;;13.50;6.80;;;11.90;99.90;;;12.12;100.00;100596.44;4896083;29;20077;-70
2023/12/28 00:03:46;;;;;;;14.38;6.78;;;11.90;99.90;;;12.11;100.00;100588.53;4894695;29;20399;-68
2023/12/28 00:06:14;;;;;;;14.35;7.07;;;11.80;99.90;;;12.12;100.00;100582.31;4895811;29;20051;-68
2023/12/28 00:08:44;;;;;;;11.82;6.55;;;11.90;99.90;;;12.12;100.00;100596.44;4895602;29;20080;-67
2023/12/28 00:11:23;;;;;;;12.13;6.32;;;11.90;99.90;;;12.10;100.00;100597.41;4895811;29;20161;-69
2023/12/28 00:13:52;;;;;;;12.38;6.38;;;11.80;99.90;;;12.12;100.00;100587.63;4910347;29;20554;-68
2023/12/28 00:16:20;;;;;;;13.73;6.85;;;11.80;99.90;;;12.10;100.00;100590.28;4910372;29;20506;-67
2023/12/28 00:18:49;;;;;;;17.10;6.85;;;11.80;99.90;;;12.01;100.00;100602.81;4910485;29;20064;-69
2023/12/28 00:21:17;;;;;;;14.23;6.60;;;11.80;99.90;;;12.04;100.00;100581.56;4895467;29;20084;-68
2023/12/28 00:23:47;;;;;;;11.85;6.28;;;11.80;99.90;;;11.99;100.00;100589.59;4895971;29;20048;-68
2023/12/28 00:26:21;;;;;;;16.67;6.13;;;11.80;99.90;;;11.95;100.00;100597.59;4895627;29;20104;-68
2023/12/28 00:28:58;;;;;;;14.05;6.88;;;11.70;99.90;;;12.04;100.00;100594.84;4895693;29;20155;-68
2023/12/28 00:31:27;;;;;;;12.63;6.30;;;11.80;99.90;;;12.06;100.00;100598.34;4895555;29;20055;-68
2023/12/28 00:33:55;;;;;;;8.95;5.68;;;11.80;99.90;;;12.02;100.00;100610.72;4895625;29;20041;-67
2023/12/28 00:36:24;;;;;;;11.38;5.97;;;11.80;99.90;;;12.03;100.00;100615.16;4895467;29;20554;-67
2023/12/28 00:38:54;;;;;;;15.05;6.18;;;11.80;99.90;;;11.89;100.00;100595.03;4895596;29;20542;-69
2023/12/28 00:41:22;;;;;;;19.70;6.47;;;11.80;99.90;;;12.05;100.00;100610.72;4895816;29;20060;-67
2023/12/28 00:43:50;;;;;;;9.63;5.70;;;11.80;99.90;;;11.97;100.00;100622.31;4895550;29;20352;-69
2023/12/28 00:46:19;;;;;;;15.98;6.28;;;11.80;99.90;;;11.89;100.00;100580.00;4895514;29;20045;-67
2023/12/28 00:48:47;;;;;;;12.48;6.03;;;11.80;99.90;;;12.04;100.00;100608.09;4895583;29;20053;-67
2023/12/28 00:51:16;;;;;;;17.33;7.43;;;11.80;99.90;;;12.00;100.00;100611.69;4909901;29;20059;-68
2023/12/28 00:53:44;;;;;;;11.77;6.18;;;11.80;99.90;;;11.99;100.00;100599.31;4895668;29;20050;-67
2023/12/28 00:56:14;;;;;;;12.98;6.00;;;11.70;99.90;;;12.03;100.00;100598.38;4894241;29;20100;-68
2023/12/28 00:58:43;;;;;;;10.10;6.00;;;11.80;99.90;;;12.00;100.00;100611.69;4895464;29;20048;-69
2023/12/28 01:01:12;;;;;;;10.75;6.80;;;11.80;99.90;;;12.02;100.00;100608.09;4895223;29;20419;-68
2023/12/28 01:03:41;;;;;;;15.25;6.60;;;11.80;99.90;;;11.98;100.00;100613.47;4895225;29;20104;-67
2023/12/28 01:06:09;;;;;;;19.38;7.47;;;11.70;99.90;;;12.01;100.00;100611.66;4895495;29;20040;-67
2023/12/28 01:08:38;;;;;;;13.48;6.38;;;11.80;99.90;;;12.10;100.00;100610.66;4895569;29;20383;-67
2023/12/28 01:11:06;;;;;;;12.80;6.20;;;11.80;99.90;;;12.08;100.00;100607.16;4895335;29;20144;-67
2023/12/28 01:13:36;;;;;;;11.55;6.35;;;11.80;99.90;;;11.99;100.00;100629.34;4895252;29;20053;-67
2023/12/28 01:16:08;;;;;;;13.23;6.10;;;11.80;99.90;;;12.02;100.00;100615.19;4895179;29;20061;-68
2023/12/28 01:18:36;;;;;;;12.15;6.18;;;11.80;99.90;;;12.04;100.00;100616.03;4895235;29;20044;-68
2023/12/28 01:21:06;;;;;;;12.20;6.15;;;11.80;99.90;;;12.07;100.00;100615.97;4897782;29;20079;-67
2023/12/28 01:23:34;;;;;;;14.50;7.13;;;11.80;99.90;;;11.90;100.00;100570.28;4898761;29;20060;-67
2023/12/28 01:26:03;;;;;;;10.63;6.72;;;11.80;99.90;;;12.08;100.00;100594.75;4898521;29;20052;-67
2023/12/28 01:28:31;;;;;;;13.82;7.25;;;11.80;99.90;;;12.02;100.00;100604.59;4898300;29;20048;-67
2023/12/28 01:31:01;;;;;;;15.50;6.57;;;11.80;99.90;;;12.07;100.00;100611.56;4912999;29;20044;-68
2023/12/28 01:33:29;;;;;;;12.30;6.30;;;11.80;99.90;;;12.05;100.00;100600.09;4913092;29;20182;-68
2023/12/28 01:35:58;;;;;;;14.50;7.40;;;11.80;99.90;;;12.08;100.00;100615.09;4898322;29;20451;-67
2023/12/28 01:38:26;;;;;;;10.85;6.78;;;11.80;99.90;;;11.98;100.00;100618.78;4898336;29;20048;-67
2023/12/28 01:40:55;;;;;;;15.70;7.53;;;11.80;99.90;;;12.03;100.00;100630.16;4897211;29;20052;-67
2023/12/28 01:43:24;;;;;;;12.52;6.95;;;11.80;99.90;;;12.01;100.00;100629.31;4898040;29;20052;-67
2023/12/28 01:45:52;;;;;;;13.60;7.35;;;11.80;99.90;;;12.04;100.00;100626.63;4898061;29;20044;-67
2023/12/28 01:48:23;;;;;;;15.70;7.43;;;11.80;99.90;;;11.94;100.00;100640.91;4912602;29;20056;-68
2023/12/28 01:50:51;;;;;;;14.45;6.60;;;11.70;99.90;;;12.03;100.00;100638.13;4898592;29;20057;-67
2023/12/28 01:53:20;;;;;;;17.85;8.15;;;11.80;99.90;;;12.02;100.00;100633.75;4898259;29;20048;-67
2023/12/28 01:55:49;;;;;;;15.02;7.45;;;11.80;99.90;;;11.93;100.00;100636.50;4897939;29;20040;-67
2023/12/28 01:58:18;;;;;;;23.13;7.18;;;11.70;99.90;;;11.92;100.00;100632.09;4896889;29;20451;-67
2023/12/28 02:00:46;;;;;;;19.58;6.95;;;11.70;99.90;;;11.87;100.00;100623.31;4896775;29;20574;-70
2023/12/28 02:03:15;;;;;;;14.10;6.95;;;11.70;99.90;;;11.95;100.00;100630.28;4897961;29;20044;-67
2023/12/28 02:05:47;;;;;;;16.35;6.85;;;11.70;99.90;;;11.92;100.00;100629.44;4897876;29;20143;-68
2023/12/28 02:08:16;;;;;;;19.63;7.05;;;11.70;99.90;;;11.87;100.00;100639.22;4897716;29;20124;-67
2023/12/28 02:10:44;;;;;;;21.02;6.97;;;11.70;99.90;;;11.79;100.00;100632.25;4896678;29;20576;-67
2023/12/28 02:13:14;;;;;;;20.55;6.78;;;11.60;99.90;;;11.88;100.00;100627.75;4897982;29;20135;-68
2023/12/28 02:15:44;;;;;;;16.08;6.07;;;11.60;99.90;;;11.90;100.00;100636.56;4895824;29;20140;-69
2023/12/28 02:18:15;;;;;;;13.82;5.78;;;11.60;99.90;;;11.89;100.00;100634.78;4896945;29;20064;-67
2023/12/28 02:20:47;;;;;;;15.77;5.90;;;11.60;99.90;;;11.97;100.00;100622.31;4896926;29;20056;-68
2023/12/28 02:23:16;;;;;;;16.23;7.20;;;11.70;99.90;;;11.84;100.00;100620.72;4927463;29;20147;-68
2023/12/28 02:25:46;;;;;;;13.57;6.05;;;11.60;99.90;;;11.84;100.00;100628.69;4895624;29;20053;-67
2023/12/28 02:28:14;;;;;;;12.57;5.97;;;11.60;99.90;;;11.84;100.00;100603.06;4927094;29;20083;-69
2023/12/28 02:30:43;;;;;;;15.00;6.15;;;11.60;99.90;;;11.21;100.00;100508.50;4896184;29;20388;-67
2023/12/28 02:33:20;;;;;;;15.05;5.82;;;11.60;99.90;;;11.77;100.00;100604.03;4896187;29;20115;-69
2023/12/28 02:35:56;;;;;;;16.75;6.35;;;11.60;99.90;;;11.91;100.00;100627.69;4911427;29;20503;-66
2023/12/28 02:38:26;;;;;;;12.80;6.18;;;11.60;99.90;;;11.85;100.00;100660.44;4896673;29;20063;-67
2023/12/28 02:40:57;;;;;;;13.10;6.18;;;11.60;99.90;;;11.86;100.00;100626.88;4896491;29;20045;-67
2023/12/28 02:43:25;;;;;;;13.57;5.80;;;11.60;99.90;;;11.83;100.00;100635.75;4896505;29;20085;-69
2023/12/28 02:45:54;;;;;;;13.40;5.63;;;11.60;99.90;;;11.83;100.00;100641.03;4896315;29;20131;-67
2023/12/28 02:48:22;;;;;;;15.85;6.25;;;11.60;99.90;;;11.85;100.00;100643.66;4926852;29;20066;-69
2023/12/28 02:50:51;;;;;;;15.43;6.75;;;11.60;99.90;;;11.81;100.00;100639.34;4896459;29;20045;-68
2023/12/28 02:53:19;;;;;;;15.70;6.00;;;11.60;99.90;;;11.83;100.00;100634.91;4896362;29;20052;-67
2023/12/28 02:55:48;;;;;;;13.25;6.32;;;11.60;99.90;;;11.77;100.00;100620.81;4895087;29;20403;-67
2023/12/28 02:58:18;;;;;;;16.90;6.10;;;11.60;99.90;;;11.74;100.00;100642.06;4895999;29;20511;-69
2023/12/28 03:00:46;;;;;;;16.27;5.90;;;11.50;99.90;;;11.75;100.00;100619.94;4896229;29;20037;-67
2023/12/28 03:03:15;;;;;;;12.95;5.55;;;11.50;99.90;;;11.71;100.00;100618.22;4896106;29;20755;-68
2023/12/28 03:05:43;;;;;;;16.17;5.95;;;11.50;99.90;;;11.77;100.00;100627.88;4896192;29;20108;-69
2023/12/28 03:08:12;;;;;;;17.45;5.85;;;11.50;99.90;;;11.65;100.00;100620.97;4896133;29;20402;-68
2023/12/28 03:10:41;;;;;;;13.98;6.22;;;11.50;99.90;;;11.67;100.00;100639.50;4896022;29;20406;-69
2023/12/28 03:13:09;;;;;;;16.48;5.97;;;11.50;99.90;;;11.77;100.00;100611.97;4896232;29;20060;-68
2023/12/28 03:15:39;;;;;;;18.60;6.00;;;11.50;99.90;;;11.67;100.00;100632.41;4894763;29;20056;-68
2023/12/28 03:18:07;;;;;;;16.63;6.25;;;11.50;99.90;;;11.74;100.00;100617.31;4896222;29;20455;-68
2023/12/28 03:20:37;;;;;;;16.13;5.30;;;11.50;99.90;;;11.72;100.00;100613.81;4910246;29;20060;-67
2023/12/28 03:23:07;;;;;;;14.73;5.43;;;11.50;99.90;;;11.67;100.00;100595.31;4910373;29;20048;-68
2023/12/28 03:25:37;;;;;;;17.20;5.90;;;11.50;99.90;;;11.70;100.00;100602.38;4894806;29;20507;-69
2023/12/28 03:28:06;;;;;;;16.85;5.60;;;11.50;99.90;;;11.75;100.00;100593.44;4895746;29;20063;-67
2023/12/28 03:30:35;;;;;;;14.75;5.82;;;11.50;99.90;;;11.76;100.00;100612.88;4894694;29;20045;-68
2023/12/28 03:33:05;;;;;;;13.27;5.28;;;11.50;99.90;;;11.72;100.00;100601.47;4895735;29;20511;-70
2023/12/28 03:35:34;;;;;;;17.88;5.93;;;11.50;99.90;;;11.74;100.00;100597.00;4926383;29;20049;-68
2023/12/28 03:38:02;;;;;;;16.75;5.80;;;11.50;99.90;;;11.72;100.00;100584.66;4895779;29;20485;-68
2023/12/28 03:40:30;;;;;;;22.95;6.32;;;11.50;99.90;;;11.76;100.00;100603.16;4910427;29;20084;-69
2023/12/28 03:42:59;;;;;;;15.13;5.43;;;11.50;99.90;;;11.76;100.00;100578.44;4895505;29;20040;-68
2023/12/28 03:45:27;;;;;;;18.35;5.90;;;11.60;99.90;;;11.79;100.00;100608.41;4896055;29;20112;-67
2023/12/28 03:47:56;;;;;;;23.38;6.05;;;11.50;99.90;;;11.73;99.88;100600.53;4895932;29;20668;-67
2023/12/28 03:50:26;;;;;;;22.60;5.80;;;11.50;99.90;;;11.78;99.75;100600.50;4895573;29;20609;-68
2023/12/28 03:52:55;;;;;;;24.93;6.03;;;11.60;99.90;;;11.74;99.72;100599.66;4910037;29;20059;-67
2023/12/28 03:55:24;;;;;;;20.67;5.80;;;11.50;99.90;;;11.83;99.65;100587.19;4895901;29;20444;-66
2023/12/28 03:57:52;;;;;;;29.02;6.25;;;11.60;99.90;;;11.83;99.33;100613.69;4895728;29;20056;-68
2023/12/28 04:00:23;;;;;;;17.38;6.30;;;11.60;99.90;;;11.83;99.46;100601.28;4910067;29;20155;-66
2023/12/28 04:02:52;;;;;;;20.17;5.85;;;11.60;99.90;;;11.94;98.94;100595.84;4895570;29;20040;-67
2023/12/28 04:05:21;;;;;;;21.80;6.03;;;11.70;99.90;;;11.88;98.94;100588.00;4895775;29;20132;-67
2023/12/28 04:07:51;;;;;;;21.92;5.85;;;11.70;99.90;;;11.87;98.80;100594.16;4895678;29;20085;-67
2023/12/28 04:10:31;;;;;;;17.77;6.43;;;11.70;99.90;;;11.95;98.30;100594.94;4895566;29;20461;-67
2023/12/28 04:13:00;;;;;;;25.23;6.23;;;11.70;99.90;;;11.92;98.13;100608.25;4925684;29;20074;-68
2023/12/28 04:15:28;;;;;;;26.92;6.35;;;11.70;99.90;;;11.89;98.10;100606.50;4894057;29;20178;-67
2023/12/28 04:17:58;;;;;;;23.90;6.10;;;11.70;99.90;;;11.97;97.65;100609.06;4894348;29;20056;-67
2023/12/28 04:20:29;;;;;;;21.27;6.88;;;11.70;99.90;;;12.04;97.48;100602.78;4910076;29;20052;-67
2023/12/28 04:22:59;;;;;;;29.42;6.68;;;11.80;99.90;;;11.99;97.15;100580.75;4895691;29;20057;-68
2023/12/28 04:25:27;;;;;;;27.10;6.57;;;11.80;99.90;;;12.02;97.07;100601.94;4895447;29;20123;-68
2023/12/28 04:27:56;;;;;;;17.60;5.95;;;11.80;99.90;;;11.59;96.88;100530.09;4909515;29;20052;-67
2023/12/28 04:30:25;;;;;;;23.48;5.78;;;11.80;99.90;;;12.03;96.75;100599.25;4894934;29;20056;-67
2023/12/28 04:32:53;;;;;;;20.90;7.03;;;11.80;99.90;;;12.02;96.60;100583.38;4909456;29;20084;-67
2023/12/28 04:35:22;;;;;;;22.35;6.05;;;11.80;99.90;;;12.00;96.49;100616.97;4895125;29;20108;-67
2023/12/28 04:37:50;;;;;;;23.35;6.25;;;11.80;99.90;;;12.06;96.30;100603.63;4893779;29;20048;-67
2023/12/28 04:40:20;;;;;;;25.67;6.75;;;11.80;99.90;;;11.93;96.15;100604.69;4909361;29;20064;-67
2023/12/28 04:42:49;;;;;;;20.63;6.40;;;11.80;99.90;;;12.06;96.08;100603.63;4893720;29;20152;-67
2023/12/28 04:45:17;;;;;;;19.92;6.20;;;11.80;99.90;;;12.02;96.00;100601.94;4894862;29;20132;-70
2023/12/28 04:47:46;;;;;;;26.17;6.63;;;11.80;99.90;;;12.04;95.73;100608.94;4894947;29;20049;-67
2023/12/28 04:50:14;;;;;;;22.55;6.13;;;11.80;99.90;;;11.98;95.26;100614.31;4895010;29;20048;-67
2023/12/28 04:52:43;;;;;;;19.42;6.15;;;11.90;99.90;;;12.04;95.50;100629.28;4894764;29;20056;-68
2023/12/28 04:55:12;;;;;;;27.90;7.07;;;11.80;99.90;;;12.09;95.55;100611.53;4896238;29;20068;-67
2023/12/28 04:57:42;;;;;;;28.33;6.90;;;11.80;99.90;;;12.10;94.94;100608.84;4898636;29;20048;-68
2023/12/28 05:00:12;;;;;;;26.17;6.78;;;11.90;99.90;;;12.12;95.14;100622.06;4898564;29;20045;-67
2023/12/28 05:02:41;;;;;;;18.98;6.07;;;11.90;99.90;;;12.11;94.88;100630.94;4898190;29;20059;-67
2023/12/28 05:05:12;;;;;;;22.30;7.03;;;11.90;99.90;;;11.87;94.84;100597.72;4912619;29;20076;-67
2023/12/28 05:07:42;;;;;;;22.30;6.60;;;11.90;99.90;;;12.17;94.96;100625.56;4896864;29;20148;-67
2023/12/28 05:10:10;;;;;;;22.75;6.63;;;11.90;99.90;;;12.06;94.89;100599.19;4912740;29;20144;-68
2023/12/28 05:12:39;;;;;;;24.35;7.10;;;11.90;99.90;;;12.14;94.61;100623.81;4898100;29;20033;-67
2023/12/28 05:15:15;;;;;;;25.90;6.32;;;11.90;99.90;;;12.14;94.51;100646.78;4912669;29;20137;-68
2023/12/28 05:17:44;;;;;;;24.88;6.38;;;11.90;99.90;;;12.15;94.01;100641.50;4898019;29;20447;-68
2023/12/28 05:20:13;;;;;;;26.27;6.80;;;12.00;99.90;;;12.12;93.95;100612.34;4927989;29;20067;-68
2023/12/28 05:22:42;;;;;;;24.67;7.03;;;12.00;99.90;;;12.25;93.77;100623.66;4898084;29;20048;-70
2023/12/28 05:25:10;;;;;;;27.90;7.05;;;12.00;99.90;;;12.26;93.32;100614.81;4897913;29;20509;-69
2023/12/28 05:27:39;;;;;;;29.17;6.47;;;12.10;99.90;;;12.27;93.50;100629.81;4897875;29;20068;-67
2023/12/28 05:30:09;;;;;;;24.50;6.97;;;12.00;99.90;;;12.25;93.34;100613.06;4897718;29;20049;-68
2023/12/28 05:32:39;;;;;;;28.98;7.28;;;12.00;99.90;;;12.25;93.20;100640.44;4927927;29;20144;-68
2023/12/28 05:35:08;;;;;;;26.77;6.72;;;12.00;99.90;;;12.27;93.37;100637.78;4897619;29;20044;-68
2023/12/28 05:37:36;;;;;;;26.83;7.45;;;12.10;99.90;;;12.33;93.12;100629.75;4912271;29;20108;-68
2023/12/28 05:40:06;;;;;;;28.45;6.82;;;12.10;99.90;;;12.30;93.00;100637.72;4897881;29;20057;-68
2023/12/28 05:42:34;;;;;;;28.75;6.95;;;12.10;99.90;;;12.33;92.82;100643.00;4897842;29;20124;-67
2023/12/28 05:45:03;;;;;;;25.85;6.80;;;12.10;99.90;;;12.19;92.67;100634.38;4897435;29;20056;-68
2023/12/28 05:47:32;;;;;;;39.60;7.82;;;12.00;99.90;;;12.40;92.79;100628.72;4897475;29;20079;-68
2023/12/28 05:50:03;;;;;;;22.70;7.00;;;12.20;99.90;;;12.25;92.56;100644.88;4897560;29;20058;-68
2023/12/28 05:52:31;;;;;;;;;;;12.10;99.90;;;12.29;92.86;100631.53;4898003;29;20051;-67
2023/12/28 05:55:00;;;;;;;31.23;7.15;;;12.10;99.90;;;12.22;92.93;100626.34;4895959;29;19923;-67
2023/12/28 05:57:30;;;;;;;28.17;6.85;;;12.00;99.90;;;12.29;92.71;100651.91;4897266;29;20068;-68
2023/12/28 05:59:59;;;;;;;28.92;6.55;;;12.10;99.90;;;12.28;92.93;100656.31;4912025;29;20446;-67
2023/12/28 06:02:27;;;;;;;32.97;7.18;;;12.10;99.90;;;12.21;92.71;100649.38;4897266;29;20048;-68
2023/12/28 06:04:56;;;;;;;32.55;7.72;;;12.00;99.90;;;12.27;92.75;100643.09;4897181;29;20063;-68
2023/12/28 06:07:26;;;;;;;32.15;7.47;;;12.10;99.90;;;12.34;92.78;100671.25;4897062;29;20048;-68
2023/12/28 06:09:54;;;;;;;33.20;6.60;;;12.10;99.90;;;12.22;92.56;100677.63;4927660;29;20502;-69
2023/12/28 06:12:23;;;;;;;28.23;7.03;;;12.00;99.90;;;12.33;92.24;100669.53;4896976;29;20044;-67
2023/12/28 06:14:51;;;;;;;36.33;7.47;;;12.10;99.90;;;12.28;92.17;100666.03;4897367;29;20041;-67
2023/12/28 06:17:20;;;;;;;32.97;7.88;;;12.10;99.90;;;12.24;92.33;100640.47;4897113;29;20119;-67
2023/12/28 06:19:49;;;;;;;32.35;8.50;;;12.10;99.90;;;12.24;92.33;100669.63;4897297;29;20403;-68
2023/12/28 06:22:18;;;;;;;28.63;7.35;;;12.00;99.90;;;12.25;92.17;100660.78;4897229;29;20048;-68
2023/12/28 06:24:48;;;;;;;28.40;7.38;;;12.00;99.90;;;12.28;92.06;100652.78;4896918;29;20049;-70
2023/12/28 06:27:16;;;;;;;27.67;7.07;;;12.00;99.90;;;12.33;91.96;100653.59;4897318;29;20060;-68
2023/12/28 06:29:45;;;;;;;33.38;7.38;;;12.10;99.90;;;12.23;91.85;100666.09;4897127;29;20288;-67
2023/12/28 06:32:13;;;;;;;33.05;7.25;;;12.00;99.90;;;12.22;91.84;100660.81;4897060;29;20045;-69
2023/12/28 06:34:42;;;;;;;36.13;8.02;;;12.00;99.90;;;12.19;91.99;100667.06;4897207;29;20077;-67
2023/12/28 06:37:11;;;;;;;36.20;7.70;;;12.00;99.90;;;12.23;91.79;100679.34;4897427;29;20147;-68
2023/12/28 06:39:40;;;;;;;36.83;7.80;;;12.00;99.90;;;12.24;91.84;100680.25;4896879;29;20104;-67
2023/12/28 06:42:10;;;;;;;31.00;8.13;;;12.00;99.90;;;12.14;91.73;100660.06;4896886;29;20079;-68
2023/12/28 06:44:39;;;;;;;37.73;8.40;;;12.00;99.90;;;12.15;91.77;100664.47;4896638;29;20052;-68
2023/12/28 06:47:07;;;;;;;35.60;8.15;;;11.90;99.90;;;12.13;92.15;100695.44;4911018;29;20068;-67
2023/12/28 06:49:35;;;;;;;33.05;7.53;;;11.90;99.90;;;11.95;92.02;100646.19;4896508;29;20554;-67
2023/12/28 06:52:04;;;;;;;35.25;7.53;;;11.90;99.90;;;11.91;92.25;100670.09;4896407;29;20360;-67
2023/12/28 06:54:33;;;;;;;40.40;8.40;;;11.80;99.90;;;12.06;92.43;100686.66;4896789;29;20104;-67
2023/12/28 06:57:02;;;;;;;29.88;7.97;;;11.80;99.90;;;11.99;92.46;100705.34;4926783;29;20060;-69
2023/12/28 06:59:32;;;;;;;38.00;8.07;;;11.80;99.90;;;11.98;92.50;100714.19;4896349;29;20095;-68
2023/12/28 07:02:00;;;;;;;28.80;7.97;;;11.80;99.90;;;11.87;92.74;100685.16;4896854;29;20219;-68
2023/12/28 07:04:29;;;;;;;37.72;8.50;;;11.80;99.90;;;11.95;92.59;100698.31;4896145;29;20100;-67
2023/12/28 07:06:58;;;;;;;31.77;7.60;;;11.70;99.90;;;11.79;92.58;100661.41;4910417;29;20061;-67
2023/12/28 07:09:26;;;;;;;32.05;7.60;;;11.70;99.90;;;11.93;92.91;100706.28;4895988;29;20056;-67
2023/12/28 07:11:55;;;;;;;28.95;7.68;;;11.70;99.90;;;12.02;92.90;100700.00;4895881;29;20613;-67
2023/12/28 07:14:23;;;;;;;25.95;6.95;;;11.80;99.90;;;11.93;92.97;100716.88;4894734;29;20055;-68
2023/12/28 07:16:53;;;;;;;31.05;7.60;;;11.70;99.90;;;11.95;93.24;100714.22;4909804;29;20494;-69
2023/12/28 07:19:21;;;;;;;35.57;7.93;;;11.70;99.90;;;12.06;93.04;100734.38;4895703;29;20048;-67
2023/12/28 07:21:50;;;;;;;28.80;6.88;;;11.80;99.90;;;12.07;92.88;100720.25;4895590;29;20296;-67
2023/12/28 07:24:18;;;;;;;30.83;7.43;;;11.80;99.90;;;12.07;93.15;100737.94;4895673;29;20134;-68
2023/12/28 07:26:47;;;;;;;31.95;7.78;;;11.80;99.90;;;12.08;92.89;100718.50;4895719;29;20609;-68
2023/12/28 07:29:15;;;;;;;31.77;7.43;;;11.80;99.90;;;12.08;93.12;100711.38;4895745;29;20045;-68
2023/12/28 07:31:43;;;;;;;25.85;7.32;;;11.90;99.90;;;12.12;92.65;100717.53;4895463;29;20056;-68
2023/12/28 07:34:13;;;;;;;27.48;7.45;;;11.90;99.90;;;12.03;92.83;100722.94;4895829;29;20041;-69
2023/12/28 07:36:43;;;;;;;32.30;7.53;;;11.80;99.90;;;12.04;93.00;100733.53;4895853;29;20053;-69
2023/12/28 07:39:12;;;;;;;26.77;7.30;;;11.80;99.90;;;12.12;93.03;100741.38;4895527;29;20418;-68
2023/12/28 07:41:41;;;;;;;28.25;7.70;;;11.80;99.90;;;11.93;93.03;100718.66;4895719;29;20048;-67
2023/12/28 07:44:09;;;;;;;27.08;7.38;;;11.80;99.90;;;12.03;92.88;100720.31;4895348;29;20067;-66
2023/12/28 07:46:37;;;;;;;29.95;7.10;;;11.80;99.90;;;12.00;92.96;100733.59;4895554;29;20202;-69
2023/12/28 07:49:06;;;;;;;32.42;7.88;;;11.80;99.90;;;12.00;92.99;100741.56;4895460;29;20416;-68
2023/12/28 07:51:36;;;;;;;30.15;7.45;;;11.80;99.90;;;11.99;93.22;100739.78;4895359;29;20052;-69
2023/12/28 07:54:05;;;;;;;27.65;7.38;;;11.80;99.90;;;12.02;93.40;100750.38;4895647;29;20159;-69
2023/12/28 07:56:33;;;;;;;32.13;7.28;;;11.80;99.90;;;11.97;93.52;100744.22;4895420;29;20064;-67
2023/12/28 07:59:03;;;;;;;35.15;8.20;;;11.80;99.90;;;12.00;93.31;100723.84;4895480;29;20049;-68
2023/12/28 08:01:33;;;;;;;29.98;7.55;;;11.80;99.90;;;12.10;92.81;100743.22;4895313;29;20049;-68
2023/12/28 08:04:01;;;;;;;27.23;7.47;;;11.90;99.90;;;11.99;92.87;100753.94;4895439;29;20049;-67
2023/12/28 08:06:32;;;;;;;29.45;7.28;;;11.80;99.90;;;12.08;93.21;100752.94;4895269;29;20491;-67
2023/12/28 08:09:02;;;;;;;38.47;6.97;;;11.80;99.90;;;12.10;93.01;100772.38;4894375;29;20062;-66
2023/12/28 08:11:30;;;;;;;33.28;7.55;;;11.80;99.90;;;12.07;93.24;100772.41;4895207;29;20060;-70
2023/12/28 08:13:59;;;;;;;36.17;7.70;;;11.80;99.90;;;12.13;92.87;100762.59;4895542;29;20060;-68
2023/12/28 08:16:27;;;;;;;29.50;7.47;;;11.90;99.90;;;12.05;93.05;100766.22;4895309;29;20048;-70
2023/12/28 08:18:55;;;;;;;23.48;7.22;;;11.80;99.90;;;12.12;93.13;100770.53;4895579;29;20059;-69
2023/12/28 08:21:24;;;;;;;32.40;6.78;;;11.80;99.90;;;12.03;93.36;100760.06;4895498;29;20064;-69
2023/12/28 08:23:53;;;;;;;30.35;6.38;;;11.80;99.90;;;12.15;93.27;100774.06;4925714;29;20696;-69
2023/12/28 08:26:23;;;;;;;27.80;7.03;;;11.90;99.90;;;12.16;93.01;100759.00;4909796;29;20473;-74
2023/12/28 08:28:51;;;;;;;29.30;7.00;;;11.90;99.90;;;12.12;92.65;100782.03;4896443;29;20048;-74
2023/12/28 08:31:20;;;;;;;24.27;7.43;;;11.90;99.90;;;12.14;92.67;100774.06;4898922;29;20097;-71
2023/12/28 08:33:48;;;;;;;23.83;6.80;;;11.90;99.90;;;12.16;92.83;100767.84;4913438;29;20064;-69
2023/12/28 08:36:17;;;;;;;33.80;8.15;;;11.90;99.90;;;11.93;92.89;100743.41;4913309;29;20506;-71
2023/12/28 08:38:46;;;;;;;29.10;7.43;;;11.90;99.90;;;12.13;93.17;100765.25;4898720;29;20056;-72
2023/12/28 08:41:23;;;;;;;34.45;8.52;;;11.90;99.90;;;12.03;93.46;100773.31;4898948;29;20108;-74
2023/12/28 08:43:53;;;;;;;25.70;6.68;;;11.90;99.90;;;12.05;93.87;100769.75;4897556;29;20055;-68
2023/12/28 08:46:24;;;;;;;31.83;7.72;;;11.80;99.90;;;12.10;93.54;100767.91;4898759;29;20379;-70
2023/12/28 08:48:52;;;;;;;;;;;11.90;99.90;;;12.14;93.79;100751.09;4898122;29;20056;-70
2023/12/28 08:51:22;;;;;;;26.30;6.93;;;11.90;99.90;;;12.14;93.69;100784.66;4898759;29;20002;-70
2023/12/28 08:53:51;;;;;;;27.40;7.03;;;11.90;99.90;;;12.10;93.65;100767.06;4898468;29;20051;-70
2023/12/28 08:56:23;;;;;;;27.92;7.00;;;11.90;99.90;;;12.19;93.62;100778.44;4928723;29;20213;-68
2023/12/28 08:58:54;;;;;;;30.13;7.53;;;11.90;99.90;;;12.16;93.70;100778.47;4897094;29;20072;-70
2023/12/28 09:01:25;;;;;;;34.55;8.30;;;11.90;99.90;;;12.18;93.66;100781.97;4928823;29;20099;-69
2023/12/28 09:03:55;;;;;;;32.53;7.60;;;11.90;99.90;;;12.21;93.22;100760.72;4898401;29;20068;-68
2023/12/28 09:06:24;;;;;;;37.08;7.43;;;12.00;99.90;;;12.24;93.20;100770.41;4898430;29;20068;-67
2023/12/28 09:08:53;;;;;;;35.35;7.88;;;12.00;99.90;;;12.23;93.06;100790.72;4913020;29;20059;-70
2023/12/28 09:11:23;;;;;;;28.47;6.67;;;12.00;99.90;;;12.28;92.68;100780.06;4898520;29;20675;-68
2023/12/28 09:13:53;;;;;;;27.30;6.43;;;12.00;99.90;;;12.20;92.64;100784.59;4898239;29;20452;-71
2023/12/28 09:16:21;;;;;;;36.95;7.93;;;12.00;99.90;;;12.27;92.77;100791.59;4898518;29;20048;-69
2023/12/28 09:18:50;;;;;;;31.50;7.75;;;12.00;99.90;;;12.26;93.07;100798.66;4898304;29;20491;-71
2023/12/28 09:21:18;;;;;;;30.45;7.45;;;12.00;99.90;;;12.25;93.04;100804.84;4896757;29;20060;-69
2023/12/28 09:23:47;;;;;;;29.95;7.53;;;12.00;99.90;;;12.22;93.19;100766.88;4898315;29;20076;-69
2023/12/28 09:26:16;;;;;;;39.08;7.68;;;12.00;99.90;;;12.23;94.47;100811.09;4928242;29;20048;-71
2023/12/28 09:28:45;;;;;;;30.80;7.40;;;12.00;99.90;;;12.21;95.73;100803.16;4898186;29;20048;-71
2023/12/28 09:31:14;;;;;;;33.17;7.03;;;12.00;99.90;;;12.17;96.33;100800.56;4898148;29;20071;-71
2023/12/28 09:33:43;;;;;;;31.80;7.55;;;11.90;99.90;;;12.12;96.59;100805.00;4897967;29;20052;-70
2023/12/28 09:36:13;;;;;;;36.13;8.20;;;11.90;99.90;;;12.11;96.69;100828.03;4898156;29;20413;-71
2023/12/28 09:38:41;;;;;;;41.65;7.97;;;11.90;99.90;;;12.11;97.71;100800.63;4897724;29;20140;-70
2023/12/28 09:41:14;;;;;;;33.85;8.07;;;11.90;99.90;;;12.08;98.54;100816.59;4897762;29;20045;-73
2023/12/28 09:43:54;;;;;;;33.05;8.15;;;11.80;99.90;;;12.04;98.96;100812.22;4898070;29;20075;-71
2023/12/28 09:46:27;;;;;;;32.80;8.13;;;11.80;99.90;;;12.02;99.31;100816.66;4899117;29;20054;-70
2023/12/28 09:48:56;;;;;;;38.25;7.63;;;11.80;99.90;;;11.98;98.44;100806.97;4899575;29;20689;-70
2023/12/28 09:51:26;;;;;;;37.40;7.97;;;11.70;99.90;;;11.92;97.32;100792.03;4898236;29;20466;-70
2023/12/28 09:53:55;;;;;;;35.00;8.02;;;11.70;99.90;;;12.00;97.17;100827.25;4929789;29;20051;-70
2023/12/28 09:56:24;;;;;;;43.22;8.15;;;11.80;99.90;;;12.03;96.80;100818.38;4899489;29;20468;-69
2023/12/28 09:58:58;;;;;;;27.98;7.15;;;11.90;99.90;;;12.15;96.04;100834.16;4899443;29;20139;-70
2023/12/28 10:01:27;;;;;;;35.03;8.05;;;11.90;99.90;;;12.24;95.29;100826.09;4899394;29;20079;-71
2023/12/28 10:03:56;;;;;;;33.33;7.25;;;12.00;99.90;;;12.35;94.65;100837.47;4899139;29;20069;-70
2023/12/28 10:06:24;;;;;;;41.03;7.80;;;12.10;99.90;;;12.37;93.66;100835.66;4897980;29;20053;-70
2023/12/28 10:08:53;;;;;;;35.63;7.88;;;12.20;99.90;;;12.47;93.62;100842.59;4899375;29;20156;-71
2023/12/28 10:11:23;;;;;;;37.40;8.20;;;12.30;99.90;;;12.45;92.73;100826.72;4899027;29;20053;-68
2023/12/28 10:13:51;;;;;;;34.20;7.75;;;12.30;99.90;;;12.52;92.69;100841.63;4897716;29;20502;-69